Time;durP1;ratioP1;P1;durP2;ratioP2;P2;SDS_P1;SDS_P2;PMS_P1;PMS_P2;Temp;Humidity;BMP_temperature;BMP_pressure;BME280_temperature;BME280_humidity;BME280_pressure;Samples;Min_cycle;Max_cycle;Signal;HPM_P1;HPM_P2
2023/04/09 00:02:11;;;;;;;8.30;3.63;;;;;;;18.29;56.52;100974.34;5068999;28;20421;-62
2023/04/09 00:04:36;;;;;;;10.50;3.70;;;;;;;18.30;56.63;100973.13;5063979;28;20440;-62
2023/04/09 00:07:01;;;;;;;7.30;3.50;;;;;;;18.29;56.62;100964.91;5075398;28;20201;-62
2023/04/09 00:09:27;;;;;;;12.07;3.20;;;;;;;18.30;56.90;100963.72;5068975;28;20182;-63
2023/04/09 00:11:52;;;;;;;6.23;2.93;;;;;;;18.29;56.64;100962.91;5050939;28;20197;-62
2023/04/09 00:14:18;;;;;;;6.30;3.20;;;;;;;18.29;56.86;100974.34;5051008;28;20194;-62
2023/04/09 00:16:43;;;;;;;8.47;3.20;;;;;;;18.28;56.67;100966.97;5048817;28;20233;-62
2023/04/09 00:19:08;;;;;;;7.50;2.97;;;;;;;18.30;56.79;100967.41;5049011;28;20643;-62
2023/04/09 00:21:34;;;;;;;6.93;3.17;;;;;;;18.29;56.73;100976.34;5051243;28;20635;-62
2023/04/09 00:24:00;;;;;;;7.20;3.17;;;;;;;18.30;56.63;100970.28;5048705;28;20179;-62
2023/04/09 00:26:25;;;;;;;10.10;3.30;;;;;;;18.30;56.88;100970.28;5048930;28;20176;-62
2023/04/09 00:28:50;;;;;;;10.23;2.77;;;;;;;18.30;56.59;100963.72;5059918;28;20203;-62
2023/04/09 00:31:16;;;;;;;6.63;2.90;;;;;;;18.29;57.00;100962.06;5067341;28;20639;-62
2023/04/09 00:33:41;;;;;;;7.87;3.30;;;;;;;18.27;56.88;100965.28;5067696;28;20159;-62
2023/04/09 00:36:07;;;;;;;7.30;3.37;;;;;;;18.28;56.61;100961.25;5053310;28;20187;-62
2023/04/09 00:38:32;;;;;;;5.47;2.67;;;;;;;18.28;56.73;100964.09;5047741;28;20667;-62
2023/04/09 00:40:58;;;;;;;9.70;3.93;;;;;;;18.30;56.79;100958.84;5050283;28;20183;-62
2023/04/09 00:43:23;;;;;;;6.77;3.03;;;;;;;18.29;56.86;100960.03;5023822;28;20191;-62
2023/04/09 00:45:49;;;;;;;7.70;3.70;;;;;;;18.29;56.82;100962.91;5050434;28;20266;-62
2023/04/09 00:48:15;;;;;;;5.50;3.13;;;;;;;18.30;56.77;100961.69;5064059;28;20190;-62
2023/04/09 00:50:41;;;;;;;6.23;2.80;;;;;;;18.28;56.72;100961.25;5068285;28;20674;-62
2023/04/09 00:53:06;;;;;;;8.60;4.13;;;;;;;18.26;56.66;100963.63;5050906;28;20592;-62
2023/04/09 00:55:32;;;;;;;6.03;3.30;;;;;;;18.29;56.83;100968.63;5059888;28;20477;-62
2023/04/09 00:57:57;;;;;;;6.60;3.27;;;;;;;18.29;56.97;100962.06;5056558;28;20744;-62
2023/04/09 01:00:22;;;;;;;8.30;3.03;;;;;;;18.30;56.84;100961.69;5066090;28;20632;-62
2023/04/09 01:02:50;;;;;;;5.73;2.70;;;;;;;18.27;56.73;100968.13;5054612;28;20709;-62
2023/04/09 01:05:15;;;;;;;5.37;2.80;;;;;;;18.27;56.70;100965.28;5067727;28;20206;-62
2023/04/09 01:08:07;;;;;;;7.33;2.80;;;;;;;18.26;56.71;100963.63;5081954;28;20852;-62
2023/04/09 01:10:45;;;;;;;11.03;3.77;;;;;;;18.28;56.60;100961.25;5071141;28;20199;-62
2023/04/09 01:13:27;;;;;;;9.23;3.10;;;;;;;18.27;56.75;100965.28;5052907;28;20393;-62
2023/04/09 01:15:57;;;;;;;5.40;2.80;;;;;;;18.28;56.93;100963.25;5034922;28;20488;-62
2023/04/09 01:18:35;;;;;;;5.57;3.13;;;;;;;18.26;56.82;100960.75;5065062;28;20444;-62
2023/04/09 01:21:16;;;;;;;9.00;2.80;;;;;;;18.27;56.86;100964.47;5052691;28;20402;-62
2023/04/09 01:23:59;;;;;;;5.80;2.40;;;;;;;18.27;57.04;100962.41;5042161;28;20453;-62
2023/04/09 01:26:33;;;;;;;5.70;2.47;;;;;;;18.27;56.97;100962.41;5050469;28;20789;-62
2023/04/09 01:28:59;;;;;;;7.23;3.40;;;;;;;18.26;57.00;100957.91;5063356;28;20835;-62
2023/04/09 01:31:29;;;;;;;7.73;2.70;;;;;;;18.24;56.91;100966.00;5052637;28;20506;-62
2023/04/09 01:33:55;;;;;;;6.47;3.07;;;;;;;18.24;56.85;100971.72;5053253;28;20531;-62
2023/04/09 01:36:20;;;;;;;5.50;3.20;;;;;;;18.27;56.85;100965.28;5039649;28;20450;-62
2023/04/09 01:38:46;;;;;;;7.43;2.93;;;;;;;18.28;56.73;100966.97;5037014;28;20184;-62
2023/04/09 01:41:13;;;;;;;5.50;2.63;;;;;;;18.26;56.72;100972.19;5045916;28;20682;-62
2023/04/09 01:43:39;;;;;;;5.47;2.60;;;;;;;18.26;56.94;100977.09;5069384;28;20187;-62
2023/04/09 01:46:04;;;;;;;6.40;3.17;;;;;;;18.24;56.50;100973.75;5047867;28;20827;-62
2023/04/09 01:48:30;;;;;;;6.60;2.80;;;;;;;18.27;56.94;100975.91;5051339;28;20480;-62
2023/04/09 01:50:57;;;;;;;5.80;2.50;;;;;;;18.24;56.95;100968.03;5069375;28;20527;-62
2023/04/09 01:53:22;;;;;;;5.90;2.93;;;;;;;18.29;56.97;100973.50;5069391;28;20168;-62
2023/04/09 01:55:47;;;;;;;8.00;3.27;;;;;;;18.27;56.75;100973.03;5059231;28;20500;-62
2023/04/09 01:58:13;;;;;;;6.47;2.67;;;;;;;18.26;57.09;100975.03;5064328;28;20187;-62
2023/04/09 02:00:39;;;;;;;4.77;2.50;;;;;;;18.26;56.90;100968.53;5022739;28;20183;-62
2023/04/09 02:03:05;;;;;;;5.40;3.30;;;;;;;18.28;57.25;100977.56;5070763;28;20179;-62
2023/04/09 02:05:32;;;;;;;6.50;2.63;;;;;;;18.26;56.76;100972.19;5067358;28;21306;-62
2023/04/09 02:07:59;;;;;;;4.37;2.40;;;;;;;18.29;56.85;100973.50;5052369;28;20217;-62
2023/04/09 02:10:25;;;;;;;6.50;2.27;;;;;;;18.24;56.86;100971.72;5051765;28;21031;-62
2023/04/09 02:12:51;;;;;;;6.70;2.80;;;;;;;18.25;56.78;100972.53;5069500;28;20426;-62
2023/04/09 02:15:18;;;;;;;5.03;2.33;;;;;;;18.28;56.73;100968.97;5070696;28;20405;-62
2023/04/09 02:17:43;;;;;;;8.20;3.70;;;;;;;18.26;56.71;100971.38;5058656;28;20939;-63
2023/04/09 02:20:09;;;;;;;8.80;2.53;;;;;;;18.23;56.73;100972.94;5015904;28;20429;-62
2023/04/09 02:22:34;;;;;;;4.00;2.43;;;;;;;18.27;56.63;100970.19;5034416;28;20191;-62
2023/04/09 02:25:00;;;;;;;5.80;2.70;;;;;;;18.29;56.83;100970.63;5051188;28;20238;-62
2023/04/09 02:27:25;;;;;;;5.03;2.83;;;;;;;18.27;56.93;100970.19;5067653;28;20278;-62
2023/04/09 02:29:51;;;;;;;5.00;2.67;;;;;;;18.26;56.79;100975.03;5069601;28;20539;-62
2023/04/09 02:32:16;;;;;;;5.97;3.03;;;;;;;18.23;56.73;100964.34;5067933;28;20649;-62
2023/04/09 02:34:41;;;;;;;8.43;2.50;;;;;;;18.29;56.54;100967.78;5069853;28;20617;-62
2023/04/09 02:37:07;;;;;;;5.50;2.47;;;;;;;18.24;56.71;100966.00;5065592;28;20187;-62
2023/04/09 02:39:32;;;;;;;5.80;2.43;;;;;;;18.22;57.02;100970.44;5070070;28;20174;-62
2023/04/09 02:41:58;;;;;;;5.57;2.63;;;;;;;18.23;56.77;100969.22;5056714;28;20195;-60
2023/04/09 02:44:23;;;;;;;6.40;2.43;;;;;;;18.23;57.00;100972.94;5052918;28;20241;-60
2023/04/09 02:46:49;;;;;;;6.40;3.03;;;;;;;18.22;57.07;100962.66;5067903;28;20647;-60
2023/04/09 02:49:14;;;;;;;5.23;2.50;;;;;;;18.21;56.90;100965.91;5066155;28;20186;-60
2023/04/09 02:51:40;;;;;;;6.57;3.00;;;;;;;18.24;56.77;100966.00;5069616;28;20675;-61
2023/04/09 02:54:05;;;;;;;7.80;2.40;;;;;;;18.22;57.12;100968.38;5051595;28;20670;-62
2023/04/09 02:56:31;;;;;;;5.10;2.47;;;;;;;18.21;57.23;100963.88;5051026;28;20228;-61
2023/04/09 02:58:56;;;;;;;6.17;2.93;;;;;;;18.21;57.07;100969.59;5065829;28;20191;-61
2023/04/09 03:01:22;;;;;;;5.90;2.63;;;;;;;18.21;56.91;100966.72;5061192;28;20179;-61
2023/04/09 03:03:47;;;;;;;5.47;2.30;;;;;;;18.21;56.88;100972.44;5049991;28;20160;-61
2023/04/09 03:06:13;;;;;;;5.13;2.47;;;;;;;18.19;56.92;100966.28;5083665;28;20236;-61
2023/04/09 03:08:38;;;;;;;7.53;2.60;;;;;;;18.21;57.05;100965.91;5066722;28;20183;-61
2023/04/09 03:11:04;;;;;;;5.40;2.30;;;;;;;18.21;56.99;100958.16;5069374;28;20587;-61
2023/04/09 03:13:29;;;;;;;6.07;2.90;;;;;;;18.21;57.17;100952.44;5066452;28;20646;-62
2023/04/09 03:15:55;;;;;;;6.10;2.90;;;;;;;18.22;57.10;100950.44;5069400;28;20186;-61
2023/04/09 03:18:20;;;;;;;5.60;2.40;;;;;;;18.20;57.01;100955.66;5068316;28;20178;-61
2023/04/09 03:20:45;;;;;;;7.63;2.80;;;;;;;18.20;56.92;100953.63;5067254;28;20183;-61
2023/04/09 03:23:11;;;;;;;5.20;3.07;;;;;;;18.21;57.08;100955.28;5069671;28;20159;-61
2023/04/09 03:25:36;;;;;;;5.57;2.87;;;;;;;18.21;56.83;100955.28;5041301;28;20195;-61
2023/04/09 03:28:02;;;;;;;6.40;2.97;;;;;;;18.19;57.16;100954.00;5057966;28;20187;-61
2023/04/09 03:30:28;;;;;;;3.87;2.20;;;;;;;18.22;57.00;100951.25;5048645;28;20199;-61
2023/04/09 03:32:53;;;;;;;4.37;2.77;;;;;;;18.22;56.73;100950.44;5050950;28;20226;-61
2023/04/09 03:35:19;;;;;;;4.57;2.23;;;;;;;18.20;57.01;100949.94;5051957;28;20182;-61
2023/04/09 03:37:45;;;;;;;5.43;2.60;;;;;;;18.18;57.16;100952.34;5030736;28;20203;-61
2023/04/09 03:40:11;;;;;;;4.07;2.60;;;;;;;18.20;56.93;100953.63;5051480;28;20163;-61
2023/04/09 03:42:36;;;;;;;4.57;2.10;;;;;;;18.21;56.86;100954.47;5068223;28;20178;-61
2023/04/09 03:45:03;;;;;;;4.63;2.17;;;;;;;18.20;56.91;100953.63;5061858;28;20270;-61
2023/04/09 03:47:28;;;;;;;4.37;2.37;;;;;;;18.19;57.00;100954.84;5037504;28;20219;-61
2023/04/09 03:49:54;;;;;;;4.17;2.53;;;;;;;18.20;56.84;100958.50;5060443;28;20826;-61
2023/04/09 03:52:19;;;;;;;5.40;2.50;;;;;;;18.25;57.00;100947.66;5048533;28;20531;-61
2023/04/09 03:54:45;;;;;;;4.40;2.30;;;;;;;18.23;57.12;100950.06;5048521;28;20175;-61
2023/04/09 03:57:10;;;;;;;5.77;2.57;;;;;;;18.22;57.07;100951.25;5033934;28;20281;-61
2023/04/09 03:59:35;;;;;;;5.00;2.17;;;;;;;18.20;56.91;100958.50;5050525;28;20237;-61
2023/04/09 04:02:01;;;;;;;4.93;2.50;;;;;;;18.19;56.85;100954.84;5063500;28;20191;-61
2023/04/09 04:04:26;;;;;;;4.83;2.30;;;;;;;18.20;57.10;100947.09;5055638;28;20182;-61
2023/04/09 04:06:52;;;;;;;7.03;2.63;;;;;;;18.18;56.77;100956.03;5064609;28;20195;-61
2023/04/09 04:09:17;;;;;;;5.73;2.63;;;;;;;18.19;56.81;100951.13;5054188;28;20180;-61
2023/04/09 04:11:43;;;;;;;4.00;2.00;;;;;;;18.21;56.74;100949.59;5068646;28;20363;-61
2023/04/09 04:14:08;;;;;;;5.87;2.77;;;;;;;18.17;56.93;100960.06;5062956;28;20245;-61
2023/04/09 04:16:33;;;;;;;4.77;2.50;;;;;;;18.20;56.89;100952.78;5048734;28;20168;-61
2023/04/09 04:18:59;;;;;;;3.47;1.90;;;;;;;18.18;56.89;100960.91;5030966;28;20662;-61
2023/04/09 04:21:24;;;;;;;3.93;2.17;;;;;;;18.18;57.09;100960.91;5050957;28;20199;-61
2023/04/09 04:23:50;;;;;;;4.27;2.30;;;;;;;18.19;56.71;100960.56;5048719;28;20187;-61
2023/04/09 04:26:15;;;;;;;6.10;2.00;;;;;;;18.19;56.96;100960.56;5055239;28;20186;-61
2023/04/09 04:28:41;;;;;;;6.63;2.43;;;;;;;18.20;57.08;100962.22;5050881;28;20183;-61
2023/04/09 04:31:09;;;;;;;3.83;2.00;;;;;;;18.17;56.82;100960.06;5069011;28;20207;-61
2023/04/09 04:33:35;;;;;;;4.00;2.60;;;;;;;18.20;56.85;100962.22;5068672;28;20229;-61
2023/04/09 04:36:08;;;;;;;5.60;2.40;;;;;;;18.18;56.78;100961.75;5064972;28;20441;-61
2023/04/09 04:38:34;;;;;;;4.37;1.80;;;;;;;18.16;57.19;100961.28;5068324;28;20959;-61
2023/04/09 04:40:59;;;;;;;3.87;2.50;;;;;;;18.17;57.01;100965.78;5065612;28;20429;-61
2023/04/09 04:43:25;;;;;;;6.80;2.30;;;;;;;18.18;56.76;100961.75;5071580;28;20168;-61
2023/04/09 04:45:50;;;;;;;11.30;2.27;;;;;;;18.17;56.74;100968.66;5072129;28;20183;-61
2023/04/09 04:48:16;;;;;;;3.40;1.90;;;;;;;18.18;56.92;100967.47;5050099;28;20192;-61
2023/04/09 04:50:41;;;;;;;6.90;2.40;;;;;;;18.19;56.88;100971.16;5052509;28;20716;-61
2023/04/09 04:53:07;;;;;;;3.33;1.93;;;;;;;18.18;57.04;100964.63;5054567;28;20654;-61
2023/04/09 04:55:35;;;;;;;5.93;2.50;;;;;;;18.19;56.93;100968.28;5049189;28;20219;-61
2023/04/09 04:58:00;;;;;;;5.60;2.70;;;;;;;18.17;56.97;100971.50;5039614;28;20190;-61
2023/04/09 05:00:26;;;;;;;3.93;2.30;;;;;;;18.17;57.16;100977.22;5038127;28;20433;-61
2023/04/09 05:02:51;;;;;;;3.70;2.13;;;;;;;18.17;57.11;100971.50;5053363;28;20191;-61
2023/04/09 05:05:17;;;;;;;3.10;1.93;;;;;;;18.18;56.75;100972.34;5072563;28;20166;-61
2023/04/09 05:07:42;;;;;;;5.10;2.30;;;;;;;18.18;56.67;100978.06;5067085;28;20301;-61
2023/04/09 05:10:08;;;;;;;4.83;2.40;;;;;;;18.19;57.02;100983.41;5051623;28;20234;-61
2023/04/09 05:12:33;;;;;;;4.50;2.20;;;;;;;18.18;57.09;100978.91;5051314;28;20254;-61
2023/04/09 05:14:59;;;;;;;4.00;1.80;;;;;;;18.19;56.72;100979.72;5050916;28;20616;-61
2023/04/09 05:17:24;;;;;;;4.83;2.37;;;;;;;18.19;56.73;100974.84;5064948;28;20904;-61
2023/04/09 05:19:53;;;;;;;4.17;2.10;;;;;;;18.19;56.90;100976.84;5070111;28;20560;-61
2023/04/09 05:22:18;;;;;;;4.90;2.40;;;;;;;18.19;56.92;100983.41;5052814;28;20526;-61
2023/04/09 05:24:44;;;;;;;3.93;2.00;;;;;;;18.20;57.04;100978.53;5069893;28;20402;-61
2023/04/09 05:27:09;;;;;;;5.00;2.40;;;;;;;18.19;56.71;100983.41;5054586;28;20188;-61
2023/04/09 05:29:35;;;;;;;4.37;2.50;;;;;;;18.19;56.55;100994.84;5071302;28;20171;-61
2023/04/09 05:32:00;;;;;;;3.77;2.00;;;;;;;18.19;56.93;100989.13;5058174;28;20210;-61
2023/04/09 05:34:25;;;;;;;5.23;2.33;;;;;;;18.19;56.69;100997.72;5052172;28;20194;-61
2023/04/09 05:36:51;;;;;;;4.30;2.13;;;;;;;18.20;56.98;100999.38;5071629;28;20171;-61
2023/04/09 05:39:17;;;;;;;3.93;2.07;;;;;;;18.18;57.03;101001.78;5071635;28;20170;-61
2023/04/09 05:41:43;;;;;;;4.60;2.20;;;;;;;18.19;56.70;100997.72;5037270;28;20438;-61
2023/04/09 05:44:10;;;;;;;5.97;2.40;;;;;;;18.20;56.86;100998.53;5039916;28;20186;-61
2023/04/09 05:46:35;;;;;;;5.07;2.00;;;;;;;18.19;56.64;100994.84;5057856;28;20441;-61
2023/04/09 05:49:01;;;;;;;3.80;2.00;;;;;;;18.20;56.83;100990.78;5051600;28;20790;-61
2023/04/09 05:51:26;;;;;;;5.60;2.30;;;;;;;18.19;56.74;100986.28;5051547;28;21055;-61
2023/04/09 05:53:52;;;;;;;4.03;2.27;;;;;;;18.18;56.55;100987.47;5071204;28;20167;-61
2023/04/09 05:56:18;;;;;;;3.47;1.90;;;;;;;18.20;56.90;100999.38;5068659;28;20238;-61
2023/04/09 05:58:43;;;;;;;3.97;2.20;;;;;;;18.18;56.79;101001.78;5054159;28;20269;-61
2023/04/09 06:01:09;;;;;;;4.50;2.20;;;;;;;18.16;56.83;101000.47;5070102;28;20444;-61
2023/04/09 06:03:35;;;;;;;5.00;2.10;;;;;;;18.18;56.61;100996.06;5072742;28;20179;-62
2023/04/09 06:06:00;;;;;;;4.87;2.33;;;;;;;18.19;56.81;101005.44;5068819;28;20187;-61
2023/04/09 06:08:25;;;;;;;3.23;2.03;;;;;;;18.20;56.52;101004.25;5070105;28;20183;-61
2023/04/09 06:10:51;;;;;;;4.90;2.47;;;;;;;18.19;57.06;101009.13;5071609;28;20191;-61
2023/04/09 06:13:16;;;;;;;4.37;2.27;;;;;;;18.20;56.80;101002.22;5071445;28;20224;-61
2023/04/09 06:15:42;;;;;;;8.23;3.07;;;;;;;18.20;56.60;101012.81;5045759;28;20233;-61
2023/04/09 06:18:07;;;;;;;5.37;1.97;;;;;;;18.18;56.93;101006.63;5050662;28;20171;-61
2023/04/09 06:20:33;;;;;;;5.03;2.67;;;;;;;18.19;56.83;101009.13;5052567;28;20180;-61
2023/04/09 06:22:58;;;;;;;3.60;2.00;;;;;;;18.18;56.71;101007.47;5051085;28;20183;-61
2023/04/09 06:25:23;;;;;;;4.37;1.97;;;;;;;18.20;57.00;101004.25;5050818;28;20160;-61
2023/04/09 06:27:49;;;;;;;2.90;2.00;;;;;;;18.19;56.89;101009.13;5057242;28;20325;-62
2023/04/09 06:30:14;;;;;;;3.07;2.20;;;;;;;18.18;56.68;101007.47;5068716;28;20253;-61
2023/04/09 06:32:40;;;;;;;7.77;2.67;;;;;;;18.18;56.63;101013.19;5096734;28;20163;-61
2023/04/09 06:35:07;;;;;;;4.33;1.80;;;;;;;18.20;56.99;101015.66;5096049;28;20156;-61
2023/04/09 06:37:33;;;;;;;4.00;1.80;;;;;;;18.18;56.64;101009.50;5093306;28;20167;-61
2023/04/09 06:39:58;;;;;;;2.10;1.50;;;;;;;18.18;56.88;101013.19;5096741;28;20402;-61
2023/04/09 06:42:25;;;;;;;4.53;1.77;;;;;;;18.17;56.58;101011.50;5061882;28;20250;-61
2023/04/09 06:44:50;;;;;;;3.47;2.10;;;;;;;18.18;56.81;101010.34;5094532;28;20191;-61
2023/04/09 06:47:16;;;;;;;4.17;1.93;;;;;;;18.19;56.72;101009.13;5076031;28;20434;-61
2023/04/09 06:49:41;;;;;;;6.13;2.60;;;;;;;18.19;56.84;101016.88;5076081;28;20160;-61
2023/04/09 06:52:07;;;;;;;4.83;2.03;;;;;;;18.16;56.93;101015.56;5063836;28;20183;-61
2023/04/09 06:54:32;;;;;;;4.63;2.80;;;;;;;18.18;56.74;101018.91;5090685;28;20192;-61
2023/04/09 06:56:57;;;;;;;2.93;1.63;;;;;;;18.20;56.55;101022.22;5074994;28;20797;-61
2023/04/09 06:59:23;;;;;;;4.63;2.07;;;;;;;18.19;56.75;101017.72;5093518;28;20205;-61
2023/04/09 07:01:48;;;;;;;4.53;2.20;;;;;;;18.18;56.65;101024.63;5080861;28;20254;-61
2023/04/09 07:04:14;;;;;;;2.87;1.70;;;;;;;18.19;56.81;101025.44;5059615;28;20168;-61
2023/04/09 07:06:39;;;;;;;3.43;1.63;;;;;;;18.19;56.84;101026.28;5090499;28;20192;-61
2023/04/09 07:09:05;;;;;;;3.50;1.93;;;;;;;18.19;56.78;101022.59;5074000;28;20171;-61
2023/04/09 07:11:31;;;;;;;3.80;2.10;;;;;;;18.20;56.91;101019.38;5073287;28;20197;-61
2023/04/09 07:13:57;;;;;;;4.27;2.10;;;;;;;18.20;56.56;101025.09;5075480;28;20255;-61
2023/04/09 07:16:22;;;;;;;4.30;2.47;;;;;;;18.20;56.90;101019.38;5074879;28;20404;-61
2023/04/09 07:18:47;;;;;;;4.30;1.90;;;;;;;18.21;57.19;101031.66;5088648;28;20187;-61
2023/04/09 07:21:13;;;;;;;3.90;2.27;;;;;;;18.20;56.78;101027.94;5077374;28;20190;-61
2023/04/09 07:23:38;;;;;;;4.10;1.73;;;;;;;18.19;56.60;101026.28;5073981;28;20186;-61
2023/04/09 07:26:04;;;;;;;2.83;1.80;;;;;;;18.21;56.67;101034.50;5094892;28;20193;-61
2023/04/09 07:28:30;;;;;;;3.57;2.00;;;;;;;18.21;56.72;101032.47;5085594;28;20199;-61
2023/04/09 07:30:55;;;;;;;3.80;2.00;;;;;;;18.21;56.72;101029.59;5083338;28;20203;-61
2023/04/09 07:33:21;;;;;;;4.33;2.20;;;;;;;18.21;56.81;101029.59;5091174;28;20171;-61
2023/04/09 07:35:46;;;;;;;3.67;2.30;;;;;;;18.19;56.85;101029.16;5077307;28;20174;-61
2023/04/09 07:38:12;;;;;;;4.17;1.83;;;;;;;18.21;56.50;101031.66;5092932;28;20176;-62
2023/04/09 07:40:37;;;;;;;3.70;2.10;;;;;;;18.20;56.67;101033.66;5073020;28;20167;-62
2023/04/09 07:43:03;;;;;;;3.43;1.80;;;;;;;18.22;56.89;101039.84;5089439;28;20166;-62
2023/04/09 07:45:28;;;;;;;3.40;1.90;;;;;;;18.21;56.79;101040.22;5092977;28;20522;-62
2023/04/09 07:47:54;;;;;;;4.43;2.10;;;;;;;18.21;56.80;101043.91;5083429;28;20179;-62
2023/04/09 07:50:19;;;;;;;3.30;1.47;;;;;;;18.22;56.51;101045.56;5060468;28;20186;-62
2023/04/09 07:52:45;;;;;;;2.93;2.00;;;;;;;18.21;56.62;101046.75;5090596;28;20214;-62
2023/04/09 07:55:10;;;;;;;2.73;1.80;;;;;;;18.19;56.65;101046.28;5074144;28;20197;-62
2023/04/09 07:57:36;;;;;;;4.67;2.30;;;;;;;18.21;56.52;101045.94;5072928;28;20178;-63
2023/04/09 08:00:02;;;;;;;3.70;2.33;;;;;;;18.21;56.74;101051.66;5089740;28;20167;-63
2023/04/09 08:02:28;;;;;;;2.97;1.97;;;;;;;18.18;56.68;101047.50;5073509;28;20163;-63
2023/04/09 08:04:53;;;;;;;3.37;1.90;;;;;;;18.20;56.81;101045.09;5094254;28;20408;-63
2023/04/09 08:07:19;;;;;;;2.97;1.53;;;;;;;18.19;56.56;101049.16;5114294;28;20200;-63
2023/04/09 08:09:44;;;;;;;3.77;2.30;;;;;;;18.21;56.81;101045.94;5077104;28;20519;-63
2023/04/09 08:12:10;;;;;;;3.17;1.87;;;;;;;18.23;56.53;101043.53;5093403;28;20218;-63
2023/04/09 08:14:35;;;;;;;3.53;1.80;;;;;;;18.24;56.69;101045.19;5077895;28;20164;-63
2023/04/09 08:17:01;;;;;;;4.00;1.80;;;;;;;18.22;56.72;101039.84;5097190;28;20162;-63
2023/04/09 08:19:26;;;;;;;4.57;2.30;;;;;;;18.21;56.63;101041.03;5086918;28;20213;-62
2023/04/09 08:21:52;;;;;;;3.13;2.10;;;;;;;18.18;56.81;101047.50;5061502;28;20168;-62
2023/04/09 08:24:17;;;;;;;3.00;1.70;;;;;;;18.15;57.11;101045.34;5084997;28;20194;-63
2023/04/09 08:26:43;;;;;;;4.17;2.17;;;;;;;18.20;56.86;101045.09;5080937;28;20220;-62
2023/04/09 08:29:09;;;;;;;4.43;2.10;;;;;;;18.20;56.70;101049.97;5097829;28;20186;-62
2023/04/09 08:31:38;;;;;;;3.80;2.03;;;;;;;18.15;56.92;101047.34;5098069;28;20211;-62
2023/04/09 08:34:04;;;;;;;5.07;2.13;;;;;;;18.20;56.91;101047.09;5094312;28;20452;-62
2023/04/09 08:36:30;;;;;;;3.83;1.97;;;;;;;18.17;56.53;101051.53;5077856;28;20426;-62
2023/04/09 08:38:55;;;;;;;3.50;1.53;;;;;;;18.19;56.57;101054.88;5062961;28;20428;-62
2023/04/09 08:41:27;;;;;;;4.13;2.07;;;;;;;18.17;56.65;101048.66;5078059;28;20429;-62
2023/04/09 08:43:52;;;;;;;2.80;1.70;;;;;;;18.18;56.81;101044.63;5090961;28;20175;-62
2023/04/09 08:46:18;;;;;;;3.00;1.70;;;;;;;18.19;56.54;101039.72;5097624;28;20405;-62
2023/04/09 08:48:44;;;;;;;2.80;1.60;;;;;;;18.19;56.84;101037.72;5075995;28;20262;-62
2023/04/09 08:51:17;;;;;;;4.97;2.43;;;;;;;18.21;56.42;101038.19;5096762;28;20194;-62
2023/04/09 08:53:47;;;;;;;4.50;1.80;;;;;;;18.22;56.48;101033.31;5090413;28;20429;-62
2023/04/09 08:56:13;;;;;;;2.90;1.70;;;;;;;18.23;56.40;101034.97;5076827;28;20466;-62
2023/04/09 08:58:42;;;;;;;3.77;2.03;;;;;;;18.24;56.42;101033.75;5093933;28;20449;-62
2023/04/09 09:01:28;;;;;;;2.90;1.70;;;;;;;18.27;56.35;101042.44;5093492;28;20447;-62
2023/04/09 09:04:04;;;;;;;2.30;1.80;;;;;;;18.28;56.30;101041.28;5097136;28;20448;-63
2023/04/09 09:06:37;;;;;;;4.43;1.93;;;;;;;18.31;56.25;101037.69;5084764;28;20437;-63
2023/04/09 09:09:06;;;;;;;2.73;1.80;;;;;;;18.33;56.18;101040.22;5078500;28;20428;-62
2023/04/09 09:11:33;;;;;;;3.00;1.83;;;;;;;18.33;56.38;101043.91;5059931;28;20469;-62
2023/04/09 09:14:09;;;;;;;2.63;1.60;;;;;;;18.33;56.41;101037.34;5077076;28;20418;-62
2023/04/09 09:16:35;;;;;;;4.80;1.83;;;;;;;18.30;56.21;101033.16;5076890;28;20430;-63
2023/04/09 09:19:01;;;;;;;3.00;2.00;;;;;;;18.29;56.42;101031.50;5062113;28;20446;-62
2023/04/09 09:21:27;;;;;;;3.70;1.57;;;;;;;18.30;56.18;101030.31;5059638;28;20411;-63
2023/04/09 09:23:53;;;;;;;4.47;1.90;;;;;;;18.29;56.43;101034.34;5046759;28;20453;-63
2023/04/09 09:26:20;;;;;;;3.37;1.83;;;;;;;18.26;56.46;101035.06;5060292;28;20444;-62
2023/04/09 09:28:47;;;;;;;4.20;1.87;;;;;;;18.25;56.49;101044.84;5091975;28;20210;-62
2023/04/09 09:31:12;;;;;;;2.80;1.73;;;;;;;18.24;56.39;101046.03;5079543;28;20461;-62
2023/04/09 09:33:38;;;;;;;3.53;1.93;;;;;;;18.23;56.77;101043.53;5089269;28;20473;-62
2023/04/09 09:36:04;;;;;;;2.83;1.83;;;;;;;18.22;56.81;101050.47;5063271;28;20179;-62
2023/04/09 09:38:29;;;;;;;5.10;2.17;;;;;;;18.21;56.75;101046.75;5097223;28;20170;-62
2023/04/09 09:40:55;;;;;;;4.53;1.83;;;;;;;18.20;56.80;101047.94;5080407;28;20255;-62
2023/04/09 09:43:20;;;;;;;4.40;1.83;;;;;;;18.20;56.69;101039.38;5075471;28;20153;-62
2023/04/09 09:45:47;;;;;;;3.17;1.57;;;;;;;18.22;56.78;101041.88;5070651;28;20194;-62
2023/04/09 09:48:12;;;;;;;4.57;2.13;;;;;;;18.20;56.69;101039.38;5095540;28;20218;-62
2023/04/09 09:50:40;;;;;;;3.00;1.57;;;;;;;18.21;56.64;101031.66;5077768;28;20484;-62
2023/04/09 09:53:06;;;;;;;2.80;2.03;;;;;;;18.22;56.45;101031.25;5095536;28;20185;-62
2023/04/09 09:55:32;;;;;;;2.50;1.70;;;;;;;18.22;56.56;101025.53;5074867;28;20497;-62
2023/04/09 09:58:00;;;;;;;3.00;1.80;;;;;;;18.20;56.67;101021.38;5096877;28;20447;-62
2023/04/09 10:00:26;;;;;;;2.77;1.70;;;;;;;18.19;56.52;101019.72;5062764;28;20792;-62
2023/04/09 10:02:58;;;;;;;3.70;2.17;;;;;;;18.22;56.81;101022.69;5073589;28;20437;-62
2023/04/09 10:05:25;;;;;;;3.90;2.20;;;;;;;18.23;56.51;101015.81;5086541;28;20466;-62
2023/04/09 10:07:53;;;;;;;3.63;2.07;;;;;;;18.22;56.69;101013.31;5061543;28;20473;-62
2023/04/09 10:10:19;;;;;;;3.10;1.90;;;;;;;18.21;56.70;101021.03;5059702;28;20778;-62
2023/04/09 10:12:44;;;;;;;5.67;2.10;;;;;;;18.22;56.43;101008.41;5079181;28;20442;-62
2023/04/09 10:15:10;;;;;;;2.83;1.87;;;;;;;18.25;56.66;101019.13;5067938;28;20210;-62
2023/04/09 10:17:35;;;;;;;3.80;2.00;;;;;;;18.24;56.41;101014.59;5095851;28;20155;-62
2023/04/09 10:20:31;;;;;;;4.30;1.90;;;;;;;18.27;56.57;101013.03;5092659;28;20176;-62
2023/04/09 10:22:57;;;;;;;4.10;1.90;;;;;;;18.33;56.13;101005.91;5065576;28;20205;-62
2023/04/09 10:25:22;;;;;;;4.87;2.20;;;;;;;18.38;56.32;101000.78;5060473;28;20425;-62
2023/04/09 10:28:01;;;;;;;4.03;2.03;;;;;;;18.42;56.16;101000.88;5071880;28;20176;-62
2023/04/09 10:30:35;;;;;;;3.27;1.90;;;;;;;18.46;56.05;101001.81;5058831;28;20199;-62
2023/04/09 10:33:14;;;;;;;2.13;1.33;;;;;;;18.47;55.72;101001.44;5076651;28;20402;-62
2023/04/09 10:35:41;;;;;;;3.40;1.80;;;;;;;18.48;55.83;101000.25;5061626;28;20468;-62
2023/04/09 10:38:07;;;;;;;3.03;1.60;;;;;;;18.48;55.69;100994.53;5076576;28;20592;-62
2023/04/09 10:40:33;;;;;;;2.30;1.50;;;;;;;18.49;55.74;100996.19;5080026;28;20521;-62
2023/04/09 10:42:58;;;;;;;3.27;1.70;;;;;;;18.49;55.94;100999.06;5071190;28;20398;-62
2023/04/09 10:45:25;;;;;;;3.10;1.80;;;;;;;18.47;55.77;100990.00;5096334;28;20167;-62
2023/04/09 10:47:51;;;;;;;4.20;1.87;;;;;;;18.45;55.80;100991.56;5074747;28;20175;-62
2023/04/09 10:50:29;;;;;;;3.97;1.83;;;;;;;18.41;56.18;100993.50;5078855;28;20966;-62
2023/04/09 10:52:56;;;;;;;4.00;1.70;;;;;;;18.38;56.07;100995.06;5078879;28;20215;-62
2023/04/09 10:55:40;;;;;;;3.70;2.00;;;;;;;18.35;56.29;100984.34;5095928;28;20488;-62
2023/04/09 10:58:08;;;;;;;4.10;2.00;;;;;;;18.31;56.17;100983.38;5072621;28;20435;-62
2023/04/09 11:00:40;;;;;;;7.80;2.27;;;;;;;18.30;56.21;100984.56;5075870;28;20411;-62
2023/04/09 11:03:11;;;;;;;6.47;2.90;;;;;;;18.32;56.30;100978.50;5076253;28;20500;-63
2023/04/09 11:05:37;;;;;;;3.60;2.10;;;;;;;18.30;56.18;100981.72;5102546;28;20488;-62
2023/04/09 11:08:10;;;;;;;5.30;2.20;;;;;;;18.28;56.05;100983.25;5064977;28;20466;-62
2023/04/09 11:10:40;;;;;;;6.93;2.20;;;;;;;18.28;56.05;100986.13;5095015;28;20217;-62
2023/04/09 11:13:08;;;;;;;6.07;2.83;;;;;;;18.30;56.01;100983.72;5076948;28;20436;-62
2023/04/09 11:15:34;;;;;;;5.40;2.50;;;;;;;18.36;55.90;100986.00;5075122;28;20493;-62
2023/04/09 11:18:01;;;;;;;4.00;1.90;;;;;;;18.33;56.25;100986.75;5053362;28;20429;-62
2023/04/09 11:20:26;;;;;;;6.60;2.63;;;;;;;18.34;55.86;100987.56;5095775;28;20424;-62
2023/04/09 11:22:53;;;;;;;7.50;2.90;;;;;;;18.34;56.14;100984.69;5091839;28;20433;-62